createdAt,value
2023-01-24T00:04:04.186Z,16.30
2023-01-24T00:09:08.335Z,16.80
2023-01-24T00:14:12.355Z,17.40
2023-01-24T00:19:16.290Z,18.00
2023-01-24T00:24:20.422Z,16.70
2023-01-24T00:29:24.455Z,18.10
2023-01-24T00:34:28.694Z,16.80
2023-01-24T00:39:33.034Z,16.00
2023-01-24T00:44:36.949Z,15.40
2023-01-24T00:49:41.214Z,16.00
2023-01-24T00:54:45.655Z,16.30
2023-01-24T00:59:49.630Z,17.60
2023-01-24T01:04:53.535Z,17.30
2023-01-24T01:09:59.082Z,14.90
2023-01-24T01:15:04.327Z,15.30
2023-01-24T01:20:10.422Z,16.40
2023-01-24T01:25:14.877Z,15.50
2023-01-24T01:30:19.295Z,14.00
2023-01-24T01:35:23.870Z,15.00
2023-01-24T01:40:28.277Z,14.10
2023-01-24T01:45:46.498Z,14.10
2023-01-24T01:51:19.562Z,14.50
2023-01-24T01:56:42.301Z,14.00
2023-01-24T02:01:48.697Z,14.90
2023-01-24T02:07:02.737Z,14.30
2023-01-24T02:12:12.554Z,14.40
2023-01-24T02:17:21.963Z,14.30
2023-01-24T02:22:44.923Z,13.00
2023-01-24T02:27:49.446Z,14.90
2023-01-24T02:32:53.596Z,13.30
2023-01-24T02:38:04.815Z,13.50
2023-01-24T02:43:12.141Z,12.70
2023-01-24T02:48:16.245Z,14.40
2023-01-24T02:53:32.890Z,13.90
2023-01-24T02:58:37.309Z,12.60
2023-01-24T03:03:45.422Z,13.30
2023-01-24T03:08:49.574Z,12.10
2023-01-24T03:14:34.012Z,12.40
2023-01-24T03:19:56.882Z,13.00
2023-01-24T03:25:19.699Z,12.90
2023-01-24T03:30:43.213Z,12.40
2023-01-24T03:35:54.900Z,13.10
2023-01-24T03:41:03.765Z,11.80
2023-01-24T03:46:07.925Z,12.40
2023-01-24T03:51:42.950Z,12.70
2023-01-24T03:56:47.511Z,12.80
2023-01-24T04:01:53.775Z,11.20
2023-01-24T04:07:21.009Z,12.30
2023-01-24T04:12:29.869Z,12.90
2023-01-24T04:17:34.618Z,12.50
2023-01-24T04:22:41.617Z,12.10
2023-01-24T04:27:46.163Z,11.60
2023-01-24T04:32:51.936Z,12.00
2023-01-24T04:38:02.772Z,11.70
2023-01-24T04:43:15.254Z,11.10
2023-01-24T04:48:21.741Z,11.70
2023-01-24T04:53:26.075Z,12.70
2023-01-24T04:58:31.532Z,11.20
2023-01-24T05:03:35.889Z,13.00
2023-01-24T05:08:40.536Z,12.20
2023-01-24T05:13:44.868Z,11.90
2023-01-24T05:18:49.418Z,12.30
2023-01-24T05:23:55.220Z,11.90
2023-01-24T05:29:00.752Z,12.40
2023-01-24T05:34:06.632Z,12.60
2023-01-24T05:39:10.861Z,11.90
2023-01-24T05:44:15.350Z,12.00
2023-01-24T05:49:19.943Z,13.00
2023-01-24T05:54:24.185Z,11.90
2023-01-24T05:59:37.529Z,11.90
2023-01-24T06:04:42.776Z,13.60
2023-01-24T06:09:47.022Z,12.40
2023-01-24T06:14:51.779Z,12.20
2023-01-24T06:19:56.230Z,12.20
2023-01-24T06:25:01.178Z,12.10
2023-01-24T06:30:08.479Z,12.00
2023-01-24T06:35:38.189Z,12.00
2023-01-24T06:40:42.439Z,12.60
2023-01-24T06:45:46.670Z,12.80
2023-01-24T06:50:50.811Z,11.60
2023-01-24T06:55:55.551Z,13.00
2023-01-24T07:00:59.789Z,13.00
2023-01-24T07:06:04.132Z,12.50
2023-01-24T07:11:08.098Z,12.30
2023-01-24T07:16:12.214Z,11.70
2023-01-24T07:21:16.853Z,10.90
2023-01-24T07:26:21.380Z,12.70
2023-01-24T07:31:25.443Z,13.70
2023-01-24T07:36:29.643Z,11.60
2023-01-24T07:41:33.787Z,18.20
2023-01-24T07:46:39.466Z,11.40
2023-01-24T07:51:43.598Z,14.30
2023-01-24T07:56:48.038Z,17.40
2023-01-24T08:01:52.282Z,14.00
2023-01-24T08:07:15.329Z,15.60
2023-01-24T08:12:19.368Z,16.90
2023-01-24T08:17:23.810Z,11.10
2023-01-24T08:22:27.840Z,12.40
2023-01-24T08:27:31.890Z,15.30
2023-01-24T08:32:36.208Z,18.80
2023-01-24T08:37:40.253Z,14.60
2023-01-24T08:42:44.175Z,13.00
2023-01-24T08:47:53.734Z,12.90
2023-01-24T08:52:58.697Z,11.30
2023-01-24T08:58:04.694Z,13.00
2023-01-24T09:10:35.769Z,11.70
2023-01-24T09:15:40.133Z,11.50
2023-01-24T09:20:44.676Z,13.20
2023-01-24T09:25:54.384Z,12.10
2023-01-24T09:30:58.301Z,12.80
2023-01-24T09:36:04.263Z,13.10
2023-01-24T09:41:32.736Z,16.80
2023-01-24T09:46:44.796Z,12.20
2023-01-24T09:51:55.207Z,14.10
2023-01-24T09:56:59.368Z,13.10
2023-01-24T10:02:13.967Z,11.80
2023-01-24T10:07:46.417Z,12.10
2023-01-24T10:13:14.811Z,11.70
2023-01-24T10:18:28.459Z,10.70
2023-01-24T10:23:38.017Z,11.80
2023-01-24T10:28:47.473Z,12.50
2023-01-24T10:33:56.216Z,11.70
2023-01-24T10:39:00.159Z,11.50
2023-01-24T10:44:29.530Z,12.30
2023-01-24T10:49:37.922Z,13.10
2023-01-24T10:54:56.034Z,12.10
2023-01-24T11:00:29.352Z,13.50
2023-01-24T11:06:04.777Z,13.20
2023-01-24T11:11:29.547Z,12.30
2023-01-24T11:16:42.326Z,12.60
2023-01-24T11:21:55.195Z,12.10
2023-01-24T11:27:15.784Z,12.70
2023-01-24T11:32:43.649Z,12.40
2023-01-24T11:38:27.185Z,12.40
2023-01-24T11:43:53.709Z,12.00
2023-01-24T11:49:22.615Z,11.60
2023-01-24T11:54:57.786Z,11.70
2023-01-24T12:00:25.176Z,11.30
2023-01-24T12:05:52.916Z,12.20
2023-01-24T12:11:35.286Z,11.50
2023-01-24T12:16:44.464Z,11.80
2023-01-24T12:21:48.721Z,11.50
2023-01-24T12:26:58.690Z,12.80
2023-01-24T12:32:24.598Z,12.40
2023-01-24T12:37:56.685Z,11.70
2023-01-24T12:43:32.041Z,11.60
2023-01-24T12:49:14.668Z,12.00
2023-01-24T12:54:27.336Z,11.20
2023-01-24T12:59:35.065Z,12.30
2023-01-24T13:05:04.081Z,11.40
2023-01-24T13:10:25.087Z,11.90
2023-01-24T13:16:07.657Z,12.90
2023-01-24T13:21:16.255Z,11.40
2023-01-24T13:26:29.394Z,11.20
2023-01-24T13:31:54.690Z,12.60
2023-01-24T13:37:00.034Z,12.20
2023-01-24T13:42:21.355Z,12.50
2023-01-24T13:47:34.144Z,11.80
2023-01-24T13:52:40.985Z,11.50
2023-01-24T13:57:45.779Z,11.90
2023-01-24T14:02:49.820Z,12.10
2023-01-24T14:07:54.155Z,12.10
2023-01-24T14:12:58.504Z,13.10
2023-01-24T14:18:03.036Z,12.90
2023-01-24T14:23:21.600Z,13.70
2023-01-24T14:28:56.836Z,12.70
2023-01-24T14:34:19.315Z,14.30
2023-01-24T14:39:25.115Z,13.90
2023-01-24T14:44:32.690Z,13.80
2023-01-24T14:49:44.956Z,15.20
2023-01-24T14:54:52.199Z,14.70
2023-01-24T15:00:25.966Z,14.60
2023-01-24T15:05:38.478Z,14.30
2023-01-24T15:10:44.175Z,15.80
2023-01-24T15:15:48.887Z,17.90
2023-01-24T15:20:55.420Z,18.60
2023-01-24T15:26:19.748Z,18.20
2023-01-24T15:31:29.890Z,20.10
2023-01-24T15:36:34.452Z,23.60
2023-01-24T15:41:57.860Z,32.70
2023-01-24T15:47:20.631Z,25.90
2023-01-24T15:52:24.790Z,25.00
2023-01-24T15:57:34.278Z,29.50
2023-01-24T16:02:38.369Z,38.60
2023-01-24T16:07:42.569Z,32.30
2023-01-24T16:12:50.890Z,27.30
2023-01-24T16:17:54.836Z,25.20
2023-01-24T16:22:58.977Z,28.10
2023-01-24T16:28:05.375Z,32.60
2023-01-24T16:33:09.473Z,35.20
2023-01-24T16:38:15.333Z,27.20
2023-01-24T16:43:22.131Z,27.30
2023-01-24T16:48:27.708Z,28.10
2023-01-24T16:53:31.828Z,31.90
2023-01-24T16:58:39.749Z,46.50
2023-01-24T17:03:44.299Z,29.70
2023-01-24T17:08:55.702Z,29.50
2023-01-24T17:14:00.335Z,31.50
2023-01-24T17:19:04.495Z,32.90
2023-01-24T17:24:10.749Z,32.30
2023-01-24T17:29:15.312Z,33.90
2023-01-24T17:34:19.904Z,34.70
2023-01-24T17:39:24.510Z,37.00
2023-01-24T17:44:31.410Z,32.30
2023-01-24T17:49:36.727Z,40.00
2023-01-24T17:54:42.402Z,39.60
2023-01-24T17:59:47.287Z,31.00
2023-01-24T18:04:52.754Z,38.00
2023-01-24T18:09:57.504Z,33.20
2023-01-24T18:15:09.564Z,35.20
2023-01-24T18:20:16.609Z,44.50
2023-01-24T18:25:22.497Z,38.00
2023-01-24T18:30:28.333Z,31.90
2023-01-24T18:35:35.338Z,33.70
2023-01-24T18:40:43.069Z,30.70
2023-01-24T18:45:50.166Z,33.60
2023-01-24T18:50:58.549Z,37.40
2023-01-24T18:56:07.165Z,30.20
2023-01-24T19:06:29.265Z,31.00
2023-01-24T19:11:38.379Z,30.70
2023-01-24T19:16:44.975Z,32.60
2023-01-24T19:21:53.319Z,36.30
2023-01-24T19:26:58.886Z,28.30
2023-01-24T19:32:06.624Z,29.50
2023-01-24T19:37:17.410Z,28.90
2023-01-24T19:42:27.101Z,29.70
2023-01-24T19:47:39.265Z,32.10
2023-01-24T19:52:46.622Z,30.30
2023-01-24T19:57:52.815Z,27.80
2023-01-24T20:02:59.974Z,32.10
2023-01-24T20:08:06.749Z,32.80
2023-01-24T20:13:26.538Z,30.30
2023-01-24T20:18:37.421Z,29.10
2023-01-24T20:23:45.132Z,28.90
2023-01-24T20:28:52.090Z,27.80
2023-01-24T20:33:58.264Z,31.70
2023-01-24T20:39:03.890Z,34.00
2023-01-24T20:44:12.589Z,34.90
2023-01-24T20:49:18.823Z,36.70
2023-01-24T20:54:26.169Z,34.20
2023-01-24T20:59:35.590Z,33.10
2023-01-24T21:04:41.337Z,33.60
2023-01-24T21:09:46.738Z,35.40
2023-01-24T21:14:52.360Z,33.30
2023-01-24T21:20:01.924Z,33.60
2023-01-24T21:25:07.535Z,27.90
2023-01-24T21:30:14.140Z,32.30
2023-01-24T21:35:18.235Z,36.90
2023-01-24T21:40:22.786Z,33.70
2023-01-24T21:45:26.637Z,33.70
2023-01-24T21:50:30.647Z,30.10
2023-01-24T21:55:36.321Z,31.00
2023-01-24T22:00:40.242Z,30.70
2023-01-24T22:06:18.654Z,31.50
2023-01-24T22:11:22.898Z,33.30
2023-01-24T22:16:27.438Z,33.70
2023-01-24T22:21:59.805Z,30.30
2023-01-24T22:27:06.591Z,35.70
2023-01-24T22:32:15.732Z,29.70
2023-01-24T22:37:39.622Z,28.90
2023-01-24T22:42:43.858Z,34.40
2023-01-24T22:47:48.630Z,32.20
2023-01-24T22:52:54.067Z,29.20
2023-01-24T22:57:58.643Z,27.50
2023-01-24T23:03:03.033Z,32.70
2023-01-24T23:08:08.854Z,27.70
2023-01-24T23:13:31.941Z,26.80
2023-01-24T23:18:54.883Z,29.20
2023-01-24T23:24:02.885Z,28.10
2023-01-24T23:29:12.975Z,26.10
2023-01-24T23:34:37.723Z,23.40
2023-01-24T23:39:41.736Z,27.60
2023-01-24T23:44:46.264Z,24.60
2023-01-24T23:49:52.298Z,24.60
2023-01-24T23:54:56.283Z,24.90
